createdAt,value
2022-07-25T00:02:00.746Z,10.17
2022-07-25T00:04:29.907Z,9.87
2022-07-25T00:06:58.848Z,10.00
2022-07-25T00:09:26.473Z,11.07
2022-07-25T00:11:54.072Z,10.53
2022-07-25T00:14:21.649Z,9.87
2022-07-25T00:16:49.303Z,10.77
2022-07-25T00:19:16.957Z,9.77
2022-07-25T00:21:44.519Z,9.90
2022-07-25T00:24:13.486Z,10.50
2022-07-25T00:26:41.299Z,9.33
2022-07-25T00:29:09.165Z,10.13
2022-07-25T00:31:36.949Z,9.47
2022-07-25T00:34:05.380Z,8.57
2022-07-25T00:36:33.233Z,10.00
2022-07-25T00:39:00.893Z,8.93
2022-07-25T00:41:29.906Z,8.97
2022-07-25T00:43:57.549Z,8.47
2022-07-25T00:46:25.163Z,8.53
2022-07-25T00:48:54.745Z,8.70
2022-07-25T00:51:22.626Z,8.87
2022-07-25T00:53:50.384Z,7.53
2022-07-25T00:56:18.090Z,8.50
2022-07-25T00:58:46.972Z,8.77
2022-07-25T01:01:14.788Z,8.10
2022-07-25T01:03:42.439Z,7.63
2022-07-25T01:06:10.123Z,8.40
2022-07-25T01:08:37.923Z,7.43
2022-07-25T01:11:05.773Z,8.27
2022-07-25T01:13:34.429Z,8.10
2022-07-25T01:16:03.607Z,7.47
2022-07-25T01:18:31.284Z,7.70
2022-07-25T01:21:00.255Z,7.20
2022-07-25T01:23:27.983Z,7.57
2022-07-25T01:25:55.649Z,7.57
2022-07-25T01:28:23.322Z,7.43
2022-07-25T01:30:51.166Z,7.10
2022-07-25T01:33:19.654Z,7.30
2022-07-25T01:35:48.171Z,6.90
2022-07-25T01:38:17.798Z,7.50
2022-07-25T01:40:45.737Z,7.27
2022-07-25T01:43:14.165Z,7.43
2022-07-25T01:45:42.068Z,7.00
2022-07-25T01:48:09.761Z,6.63
2022-07-25T01:50:37.494Z,7.20
2022-07-25T01:53:06.381Z,7.20
2022-07-25T01:55:35.377Z,8.20
2022-07-25T01:58:04.485Z,6.93
2022-07-25T02:00:34.401Z,7.40
2022-07-25T02:03:19.816Z,6.80
2022-07-25T02:05:47.420Z,7.60
2022-07-25T02:08:15.018Z,7.00
2022-07-25T02:10:44.153Z,7.07
2022-07-25T02:13:11.712Z,7.60
2022-07-25T02:15:39.400Z,6.43
2022-07-25T02:18:07.046Z,7.43
2022-07-25T02:20:34.681Z,6.97
2022-07-25T02:23:02.238Z,6.87
2022-07-25T02:25:29.823Z,6.93
2022-07-25T02:27:58.919Z,7.60
2022-07-25T02:30:26.781Z,7.30
2022-07-25T02:32:54.505Z,7.00
2022-07-25T02:35:22.444Z,6.43
2022-07-25T02:37:50.096Z,6.00
2022-07-25T02:40:17.693Z,6.40
2022-07-25T02:42:45.413Z,5.83
2022-07-25T02:45:14.352Z,6.00
2022-07-25T02:47:42.047Z,5.50
2022-07-25T02:50:12.122Z,5.60
2022-07-25T02:52:42.702Z,4.90
2022-07-25T02:55:11.533Z,5.20
2022-07-25T02:57:39.129Z,4.50
2022-07-25T03:00:08.420Z,4.90
2022-07-25T03:02:37.363Z,4.93
2022-07-25T03:05:08.209Z,5.00
2022-07-25T03:07:35.987Z,4.70
2022-07-25T03:10:03.662Z,4.23
2022-07-25T03:12:38.948Z,4.50
2022-07-25T03:15:08.034Z,4.50
2022-07-25T03:17:37.158Z,4.50
2022-07-25T03:20:05.630Z,5.10
2022-07-25T03:22:33.533Z,5.00
2022-07-25T03:25:01.129Z,4.87
2022-07-25T03:27:28.953Z,4.80
2022-07-25T03:29:56.553Z,4.23
2022-07-25T03:32:24.288Z,4.27
2022-07-25T03:34:53.263Z,4.30
2022-07-25T03:37:21.029Z,3.90
2022-07-25T03:39:48.896Z,4.93
2022-07-25T03:42:16.600Z,4.10
2022-07-25T03:44:44.209Z,3.97
2022-07-25T03:47:20.593Z,4.10
2022-07-25T03:49:48.588Z,4.07
2022-07-25T03:52:17.515Z,4.10
2022-07-25T03:54:45.098Z,3.73
2022-07-25T03:57:12.854Z,4.23
2022-07-25T03:59:40.446Z,4.77
2022-07-25T04:02:08.216Z,3.50
2022-07-25T04:04:35.895Z,3.50
2022-07-25T04:07:03.761Z,3.50
2022-07-25T04:09:33.284Z,4.53
2022-07-25T04:12:01.311Z,3.77
2022-07-25T04:14:29.009Z,3.70
2022-07-25T04:16:56.674Z,3.70
2022-07-25T04:19:24.609Z,3.50
2022-07-25T04:21:55.552Z,3.73
2022-07-25T04:24:23.205Z,3.60
2022-07-25T04:26:52.233Z,3.70
2022-07-25T04:29:19.887Z,3.43
2022-07-25T04:31:47.542Z,3.13
2022-07-25T04:34:15.125Z,3.90
2022-07-25T04:36:42.705Z,3.77
2022-07-25T04:39:10.439Z,3.10
2022-07-25T04:41:38.148Z,3.60
2022-07-25T04:44:08.754Z,3.77
2022-07-25T04:46:36.963Z,3.50
2022-07-25T04:49:04.838Z,3.90
2022-07-25T04:51:32.662Z,3.83
2022-07-25T04:54:00.304Z,3.27
2022-07-25T04:56:27.908Z,3.27
2022-07-25T04:58:56.158Z,3.43
2022-07-25T05:01:25.230Z,3.93
2022-07-25T05:03:52.967Z,3.70
2022-07-25T05:06:20.658Z,3.17
2022-07-25T05:08:48.776Z,3.63
2022-07-25T05:11:16.409Z,4.20
2022-07-25T05:13:44.139Z,3.47
2022-07-25T05:16:11.837Z,3.90
2022-07-25T05:18:40.849Z,3.47
2022-07-25T05:21:11.166Z,3.03
2022-07-25T05:23:38.815Z,3.50
2022-07-25T05:26:06.818Z,3.57
2022-07-25T05:28:34.696Z,3.50
2022-07-25T05:31:02.544Z,4.10
2022-07-25T05:33:30.257Z,3.60
2022-07-25T05:35:59.248Z,3.30
2022-07-25T05:38:26.857Z,3.17
2022-07-25T05:40:54.607Z,3.93
2022-07-25T05:43:22.368Z,3.50
2022-07-25T05:45:50.037Z,3.70
2022-07-25T05:48:17.869Z,3.33
2022-07-25T05:50:46.889Z,3.53
2022-07-25T05:53:15.853Z,3.40
2022-07-25T05:55:43.714Z,3.50
2022-07-25T05:58:11.345Z,3.60
2022-07-25T06:00:39.977Z,3.30
2022-07-25T06:03:07.666Z,3.20
2022-07-25T06:05:35.596Z,3.60
2022-07-25T06:08:03.320Z,4.10
2022-07-25T06:10:32.626Z,3.10
2022-07-25T06:13:00.555Z,3.70
2022-07-25T06:15:28.432Z,3.47
2022-07-25T06:17:55.993Z,3.57
2022-07-25T06:20:23.675Z,3.77
2022-07-25T06:22:51.300Z,3.27
2022-07-25T06:25:19.189Z,4.03
2022-07-25T06:27:48.156Z,3.37
2022-07-25T06:30:20.210Z,3.20
2022-07-25T06:32:48.373Z,3.50
2022-07-25T06:35:16.190Z,4.03
2022-07-25T06:37:43.934Z,3.50
2022-07-25T06:40:11.987Z,3.60
2022-07-25T06:42:40.108Z,3.83
2022-07-25T06:45:10.911Z,3.20
2022-07-25T06:47:39.053Z,3.60
2022-07-25T06:50:07.568Z,3.90
2022-07-25T06:52:35.488Z,3.70
2022-07-25T06:55:03.826Z,3.33
2022-07-25T06:57:31.464Z,3.80
2022-07-25T06:59:59.251Z,3.63
2022-07-25T07:02:28.189Z,4.10
2022-07-25T07:04:55.792Z,5.00
2022-07-25T07:07:23.727Z,4.00
2022-07-25T07:09:51.642Z,3.67
2022-07-25T07:12:19.473Z,4.10
2022-07-25T07:14:47.910Z,4.33
2022-07-25T07:17:15.849Z,5.03
2022-07-25T07:19:45.923Z,4.63
2022-07-25T07:22:13.653Z,4.67
2022-07-25T07:24:44.305Z,4.10
2022-07-25T07:27:16.134Z,4.47
2022-07-25T07:29:46.982Z,3.80
2022-07-25T07:32:15.382Z,4.77
2022-07-25T07:34:43.338Z,3.90
2022-07-25T07:37:12.326Z,3.87
2022-07-25T07:39:40.475Z,3.93
2022-07-25T07:42:08.312Z,4.87
2022-07-25T07:44:35.984Z,4.50
2022-07-25T07:47:03.687Z,3.70
2022-07-25T07:49:31.374Z,4.37
2022-07-25T07:52:05.076Z,3.90
2022-07-25T07:54:55.275Z,4.43
2022-07-25T07:57:25.416Z,4.17
2022-07-25T07:59:53.180Z,4.60
2022-07-25T08:02:21.108Z,4.37
2022-07-25T08:04:48.883Z,4.40
2022-07-25T08:07:16.577Z,5.10
2022-07-25T08:09:45.538Z,5.00
2022-07-25T08:12:13.266Z,4.80
2022-07-25T08:14:41.060Z,5.30
2022-07-25T08:17:08.812Z,4.60
2022-07-25T08:19:40.635Z,4.83
2022-07-25T08:22:08.966Z,5.83
2022-07-25T08:24:36.586Z,5.70
2022-07-25T08:27:05.626Z,4.60
2022-07-25T08:29:33.327Z,4.60
2022-07-25T08:32:00.948Z,5.10
2022-07-25T08:34:28.694Z,4.93
2022-07-25T08:36:56.626Z,5.63
2022-07-25T08:39:24.222Z,5.67
2022-07-25T08:41:52.064Z,5.10
2022-07-25T08:44:21.696Z,5.37
2022-07-25T08:46:49.655Z,5.90
2022-07-25T08:49:17.593Z,4.90
2022-07-25T08:51:45.893Z,5.93
2022-07-25T08:54:14.124Z,5.60
2022-07-25T08:56:41.943Z,6.30
2022-07-25T08:59:10.153Z,5.27
2022-07-25T09:01:40.817Z,5.60
2022-07-25T09:04:09.779Z,5.40
2022-07-25T09:06:38.580Z,6.10
2022-07-25T09:09:08.410Z,6.00
2022-07-25T09:11:37.616Z,4.57
2022-07-25T09:14:08.941Z,5.50
2022-07-25T09:16:41.070Z,5.43
2022-07-25T09:19:11.295Z,6.37
2022-07-25T09:21:39.805Z,5.67
2022-07-25T09:24:13.368Z,5.63
2022-07-25T09:26:49.129Z,6.10
2022-07-25T09:29:18.720Z,5.90
2022-07-25T09:31:48.038Z,5.70
2022-07-25T09:34:20.868Z,5.73
2022-07-25T09:36:54.582Z,6.97
2022-07-25T09:39:22.253Z,5.60
2022-07-25T09:41:50.985Z,5.53
2022-07-25T09:44:19.598Z,6.10
2022-07-25T09:46:48.647Z,5.90
2022-07-25T09:49:16.466Z,5.77
2022-07-25T09:51:44.329Z,5.80
2022-07-25T09:54:12.186Z,5.87
2022-07-25T09:56:39.829Z,6.10
2022-07-25T09:59:07.588Z,5.80
2022-07-25T10:01:38.126Z,5.33
2022-07-25T10:04:14.358Z,5.90
2022-07-25T10:06:49.565Z,5.37
2022-07-25T10:09:17.992Z,6.10
2022-07-25T10:12:06.725Z,6.10
2022-07-25T10:14:35.239Z,5.10
2022-07-25T10:17:03.370Z,5.13
2022-07-25T10:19:45.878Z,5.27
2022-07-25T10:22:22.773Z,5.27
2022-07-25T10:25:11.041Z,5.50
2022-07-25T10:27:43.700Z,6.13
2022-07-25T10:30:19.963Z,5.87
2022-07-25T10:32:51.641Z,5.17
2022-07-25T10:35:20.600Z,4.93
2022-07-25T10:37:51.934Z,5.80
2022-07-25T10:40:27.322Z,5.50
2022-07-25T10:43:01.726Z,5.80
2022-07-25T10:45:38.624Z,6.87
2022-07-25T10:48:11.899Z,5.77
2022-07-25T10:50:56.424Z,5.33
2022-07-25T10:53:35.785Z,5.50
2022-07-25T10:56:08.404Z,4.80
2022-07-25T10:58:46.509Z,5.17
2022-07-25T11:01:15.621Z,5.50
2022-07-25T11:03:45.645Z,5.73
2022-07-25T11:06:15.324Z,5.17
2022-07-25T11:08:45.793Z,5.80
2022-07-25T11:11:14.122Z,6.33
2022-07-25T11:13:42.874Z,5.47
2022-07-25T11:16:11.011Z,5.37
2022-07-25T11:18:41.007Z,5.20
2022-07-25T11:21:09.984Z,5.20
2022-07-25T11:23:41.425Z,5.30
2022-07-25T11:26:10.493Z,5.60
2022-07-25T11:28:42.595Z,5.30
2022-07-25T11:31:10.806Z,5.70
2022-07-25T11:33:39.187Z,9.80
2022-07-25T11:36:07.692Z,5.10
2022-07-25T11:38:37.367Z,5.67
2022-07-25T11:41:06.845Z,5.20
2022-07-25T11:43:34.566Z,5.73
2022-07-25T11:46:03.680Z,5.40
2022-07-25T11:48:33.542Z,5.70
2022-07-25T11:51:13.615Z,5.50
2022-07-25T11:53:47.826Z,5.57
2022-07-25T11:56:41.461Z,6.13
2022-07-25T11:59:09.628Z,5.40
2022-07-25T12:01:39.633Z,5.27
2022-07-25T12:04:12.647Z,5.67
2022-07-25T12:06:40.494Z,5.03
2022-07-25T12:09:18.538Z,5.13
2022-07-25T12:11:49.526Z,5.53
2022-07-25T12:14:17.978Z,5.70
2022-07-25T12:16:47.623Z,5.80
2022-07-25T12:19:23.034Z,4.97
2022-07-25T12:21:50.788Z,5.60
2022-07-25T12:24:18.552Z,4.97
2022-07-25T12:26:48.036Z,5.37
2022-07-25T12:29:16.984Z,5.60
2022-07-25T12:31:44.923Z,5.80
2022-07-25T12:34:12.731Z,5.10
2022-07-25T12:36:43.984Z,4.73
2022-07-25T12:39:12.148Z,4.93
2022-07-25T12:41:42.711Z,6.40
2022-07-25T12:44:10.809Z,4.73
2022-07-25T12:46:47.260Z,5.50
2022-07-25T12:49:17.060Z,6.37
2022-07-25T12:51:45.028Z,5.50
2022-07-25T12:54:12.660Z,5.03
2022-07-25T12:56:40.302Z,4.83
2022-07-25T12:59:08.473Z,5.00
2022-07-25T13:01:36.945Z,5.60
2022-07-25T13:04:07.286Z,5.40
2022-07-25T13:06:38.631Z,5.60
2022-07-25T13:09:07.542Z,5.63
2022-07-25T13:11:35.942Z,5.90
2022-07-25T13:14:03.874Z,5.73
2022-07-25T13:16:33.948Z,5.80
2022-07-25T13:19:01.633Z,5.10
2022-07-25T13:21:31.560Z,5.00
2022-07-25T13:23:59.821Z,5.50
2022-07-25T13:26:27.636Z,6.00
2022-07-25T13:28:59.620Z,6.37
2022-07-25T13:31:30.252Z,5.60
2022-07-25T13:33:58.307Z,5.00
2022-07-25T13:36:26.929Z,5.37
2022-07-25T13:38:56.057Z,6.13
2022-07-25T13:41:24.124Z,5.63
2022-07-25T13:43:51.769Z,5.40
2022-07-25T13:46:19.498Z,5.97
2022-07-25T13:48:47.452Z,5.60
2022-07-25T13:51:15.550Z,5.57
2022-07-25T13:53:44.783Z,5.70
2022-07-25T13:56:14.070Z,5.37
2022-07-25T13:58:43.122Z,6.20
2022-07-25T14:01:11.632Z,5.30
2022-07-25T14:03:39.453Z,5.80
2022-07-25T14:06:11.090Z,5.60
2022-07-25T14:08:40.242Z,5.60
2022-07-25T14:11:11.193Z,6.63
2022-07-25T14:13:40.589Z,5.67
2022-07-25T14:16:08.664Z,5.80
2022-07-25T14:18:36.760Z,6.53
2022-07-25T14:21:04.778Z,7.73
2022-07-25T14:23:32.520Z,8.33
2022-07-25T14:26:00.283Z,9.63
2022-07-25T14:28:28.006Z,8.40
2022-07-25T14:30:57.347Z,8.80
2022-07-25T14:33:24.930Z,9.73
2022-07-25T14:35:52.793Z,9.77
2022-07-25T14:38:23.489Z,9.70
2022-07-25T14:40:51.135Z,9.40
2022-07-25T14:43:18.925Z,8.77
2022-07-25T14:45:47.062Z,8.90
2022-07-25T14:48:16.129Z,8.43
2022-07-25T14:50:43.768Z,8.23
2022-07-25T14:53:12.713Z,8.80
2022-07-25T14:55:40.488Z,8.63
2022-07-25T14:58:12.070Z,8.37
2022-07-25T15:00:43.086Z,7.70
2022-07-25T15:03:10.740Z,7.27
2022-07-25T15:05:42.299Z,6.70
2022-07-25T15:08:12.454Z,5.87
2022-07-25T15:10:40.130Z,4.47
2022-07-25T15:13:30.031Z,5.43
2022-07-25T15:15:56.125Z,4.70
2022-07-25T15:18:23.890Z,6.03
2022-07-25T15:20:53.063Z,5.07
2022-07-25T15:23:24.512Z,4.90
2022-07-25T15:26:08.093Z,5.20
2022-07-25T15:28:39.047Z,4.33
2022-07-25T15:31:07.443Z,4.87
2022-07-25T15:33:35.511Z,4.77
2022-07-25T15:36:04.869Z,4.63
2022-07-25T15:38:32.447Z,5.03
2022-07-25T15:41:00.070Z,4.17
2022-07-25T15:43:27.730Z,4.67
2022-07-25T15:45:55.371Z,5.20
2022-07-25T15:48:23.604Z,5.70
2022-07-25T15:50:52.419Z,6.67
2022-07-25T15:53:21.452Z,5.53
2022-07-25T15:55:49.071Z,6.57
2022-07-25T15:58:16.789Z,6.73
2022-07-25T16:00:44.635Z,8.83
2022-07-25T16:03:13.721Z,7.20
2022-07-25T16:05:41.733Z,7.80
2022-07-25T16:08:09.865Z,7.80
2022-07-25T16:10:53.673Z,7.33
2022-07-25T16:13:21.297Z,6.70
2022-07-25T16:15:48.983Z,6.17
2022-07-25T16:18:16.673Z,6.00
2022-07-25T16:20:44.305Z,6.40
2022-07-25T16:23:11.910Z,5.63
2022-07-25T16:25:39.612Z,7.07
2022-07-25T16:28:08.521Z,8.77
2022-07-25T16:30:36.217Z,7.87
2022-07-25T16:33:03.871Z,7.20
2022-07-25T16:35:32.283Z,8.37
2022-07-25T16:38:00.070Z,8.27
2022-07-25T16:40:30.960Z,6.80
2022-07-25T16:42:59.592Z,7.40
2022-07-25T16:45:29.149Z,7.10
2022-07-25T16:48:04.232Z,7.10
2022-07-25T16:50:31.951Z,7.23
2022-07-25T16:52:59.607Z,7.10
2022-07-25T16:55:27.279Z,7.73
2022-07-25T16:57:55.022Z,7.97
2022-07-25T17:00:22.809Z,6.47
2022-07-25T17:02:51.687Z,7.43
2022-07-25T17:05:27.298Z,7.20
2022-07-25T17:07:59.490Z,7.00
2022-07-25T17:10:27.898Z,8.27
2022-07-25T17:12:55.569Z,7.37
2022-07-25T17:15:23.480Z,7.23
2022-07-25T17:17:52.464Z,6.30
2022-07-25T17:20:20.213Z,5.97
2022-07-25T17:22:47.863Z,5.63
2022-07-25T17:25:15.483Z,3.90
2022-07-25T17:27:43.048Z,6.03
2022-07-25T17:30:11.497Z,5.50
2022-07-25T17:32:40.272Z,5.50
2022-07-25T17:35:10.270Z,4.30
2022-07-25T17:37:37.901Z,4.23
2022-07-25T17:40:06.257Z,4.27
2022-07-25T17:42:33.972Z,4.60
2022-07-25T17:45:02.635Z,3.77
2022-07-25T17:47:30.824Z,4.30
2022-07-25T17:49:58.409Z,4.87
2022-07-25T17:52:27.350Z,3.87
2022-07-25T17:54:55.466Z,4.17
2022-07-25T17:57:23.744Z,4.70
2022-07-25T17:59:51.322Z,5.07
2022-07-25T18:02:19.013Z,4.67
2022-07-25T18:04:46.806Z,4.90
2022-07-25T18:07:14.460Z,4.80
2022-07-25T18:09:43.416Z,4.30
2022-07-25T18:12:12.068Z,5.00
2022-07-25T18:14:39.730Z,4.50
2022-07-25T18:17:07.342Z,4.70
2022-07-25T18:19:34.925Z,4.70
2022-07-25T18:22:02.525Z,5.07
2022-07-25T18:24:30.752Z,5.27
2022-07-25T18:26:59.923Z,5.00
2022-07-25T18:29:27.516Z,5.17
2022-07-25T18:31:55.123Z,6.00
2022-07-25T18:34:22.720Z,5.10
2022-07-25T18:36:50.358Z,5.87
2022-07-25T18:39:18.061Z,4.63
2022-07-25T18:41:45.668Z,4.53
2022-07-25T18:44:14.598Z,4.70
2022-07-25T18:46:45.526Z,4.80
2022-07-25T18:49:13.462Z,4.90
2022-07-25T18:51:41.122Z,5.67
2022-07-25T18:54:09.177Z,4.77
2022-07-25T18:56:37.134Z,5.03
2022-07-25T18:59:05.007Z,5.23
2022-07-25T19:01:34.302Z,5.10
2022-07-25T19:04:01.881Z,4.67
2022-07-25T19:06:51.424Z,4.77
2022-07-25T19:09:19.403Z,5.03
2022-07-25T19:11:47.882Z,4.83
2022-07-25T19:14:15.717Z,5.53
2022-07-25T19:16:44.981Z,6.07
2022-07-25T19:19:13.144Z,4.53
2022-07-25T19:21:40.939Z,4.97
2022-07-25T19:24:09.078Z,5.03
2022-07-25T19:26:37.142Z,5.20
2022-07-25T19:29:06.586Z,5.10
2022-07-25T19:31:34.485Z,4.90
2022-07-25T19:34:03.675Z,5.00
2022-07-25T19:36:31.863Z,5.30
2022-07-25T19:38:59.904Z,4.63
2022-07-25T19:41:27.819Z,5.07
2022-07-25T19:43:55.927Z,3.97
2022-07-25T19:46:25.076Z,4.20
2022-07-25T19:48:52.934Z,4.30
2022-07-25T19:51:21.964Z,4.13
2022-07-25T19:53:49.594Z,3.97
2022-07-25T19:56:17.651Z,3.67
2022-07-25T19:58:46.063Z,4.10
2022-07-25T20:01:14.275Z,3.50
2022-07-25T20:03:42.650Z,3.90
2022-07-25T20:06:10.477Z,4.00
2022-07-25T20:08:40.298Z,4.30
2022-07-25T20:11:08.327Z,4.33
2022-07-25T20:13:36.515Z,3.73
2022-07-25T20:16:04.925Z,4.47
2022-07-25T20:18:32.897Z,4.33
2022-07-25T20:21:00.956Z,4.30
2022-07-25T20:23:28.821Z,4.80
2022-07-25T20:25:58.003Z,5.27
2022-07-25T20:28:25.876Z,4.30
2022-07-25T20:30:54.137Z,5.07
2022-07-25T20:33:23.740Z,4.53
2022-07-25T20:35:51.476Z,4.97
2022-07-25T20:38:19.067Z,5.00
2022-07-25T20:40:49.709Z,4.20
2022-07-25T20:43:19.565Z,4.33
2022-07-25T20:45:47.479Z,4.80
2022-07-25T20:48:15.570Z,5.57
2022-07-25T20:50:44.228Z,5.20
2022-07-25T20:53:12.054Z,4.87
2022-07-25T20:55:39.667Z,4.37
2022-07-25T20:58:07.567Z,4.73
2022-07-25T21:00:36.558Z,5.20
2022-07-25T21:03:05.364Z,5.00
2022-07-25T21:05:37.532Z,4.90
2022-07-25T21:08:05.331Z,4.97
2022-07-25T21:10:33.071Z,4.57
2022-07-25T21:13:00.695Z,6.90
2022-07-25T21:15:28.312Z,4.83
2022-07-25T21:17:57.693Z,5.07
2022-07-25T21:20:25.306Z,4.60
2022-07-25T21:22:55.310Z,5.50
2022-07-25T21:25:22.912Z,5.97
2022-07-25T21:27:50.583Z,5.13
2022-07-25T21:30:18.239Z,5.87
2022-07-25T21:32:45.908Z,5.10
2022-07-25T21:35:14.939Z,5.73
2022-07-25T21:37:42.588Z,6.47
2022-07-25T21:40:11.202Z,5.23
2022-07-25T21:42:38.887Z,5.10
2022-07-25T21:45:07.879Z,5.50
2022-07-25T21:47:35.666Z,5.27
2022-07-25T21:50:25.020Z,4.87
2022-07-25T21:52:54.554Z,5.13
2022-07-25T21:55:22.744Z,5.40
2022-07-25T21:57:51.310Z,5.73
2022-07-25T22:00:19.876Z,5.53
2022-07-25T22:02:47.971Z,5.60
2022-07-25T22:05:16.801Z,4.33
2022-07-25T22:07:47.486Z,6.10
2022-07-25T22:10:18.516Z,4.87
2022-07-25T22:12:46.576Z,5.27
2022-07-25T22:15:14.338Z,5.73
2022-07-25T22:17:49.204Z,5.20
2022-07-25T22:20:18.164Z,4.97
2022-07-25T22:22:46.396Z,5.53
2022-07-25T22:25:14.098Z,5.57
2022-07-25T22:27:43.954Z,5.50
2022-07-25T22:30:18.027Z,5.47
2022-07-25T22:32:46.944Z,5.30
2022-07-25T22:35:14.589Z,4.57
2022-07-25T22:37:42.271Z,5.63
2022-07-25T22:40:10.809Z,5.90
2022-07-25T22:42:38.444Z,5.30
2022-07-25T22:45:08.805Z,6.33
2022-07-25T22:47:36.403Z,6.03
2022-07-25T22:50:05.076Z,5.57
2022-07-25T22:52:34.878Z,6.47
2022-07-25T22:55:02.522Z,6.20
2022-07-25T22:57:30.142Z,5.63
2022-07-25T23:00:06.294Z,5.63
2022-07-25T23:02:35.364Z,6.40
2022-07-25T23:05:03.043Z,5.10
2022-07-25T23:07:30.723Z,6.10
2022-07-25T23:09:58.805Z,5.53
2022-07-25T23:12:26.492Z,5.00
2022-07-25T23:14:54.114Z,5.97
2022-07-25T23:17:21.792Z,4.67
2022-07-25T23:19:51.649Z,4.83
2022-07-25T23:22:19.805Z,5.00
2022-07-25T23:24:47.561Z,5.00
2022-07-25T23:27:15.635Z,5.03
2022-07-25T23:29:43.436Z,4.67
2022-07-25T23:32:11.246Z,5.37
2022-07-25T23:34:38.847Z,5.47
2022-07-25T23:37:07.887Z,4.80
2022-07-25T23:39:35.665Z,5.03
2022-07-25T23:42:03.407Z,4.03
2022-07-25T23:44:31.050Z,5.07
2022-07-25T23:46:59.786Z,5.63
2022-07-25T23:49:29.436Z,4.30
2022-07-25T23:51:57.465Z,5.07
2022-07-25T23:54:26.857Z,5.00
2022-07-25T23:56:54.655Z,5.20
2022-07-25T23:59:22.441Z,4.17
